Time;durP1;ratioP1;P1;durP2;ratioP2;P2;SDS_P1;SDS_P2;PMS_P1;PMS_P2;Temp;Humidity;BMP_temperature;BMP_pressure;BME280_temperature;BME280_humidity;BME280_pressure;Samples;Min_cycle;Max_cycle;Signal;HPM_P1;HPM_P2
2021/04/07 00:02:30;;;;;;;2.85;0.95;;;9.20;29.00;;;;;;6259712;28;20037;-78
2021/04/07 00:05:34;;;;;;;1.90;0.88;;;9.10;29.10;;;;;;6234890;28;20052;-76
2021/04/07 00:08:36;;;;;;;3.15;1.00;;;9.10;29.20;;;;;;6228954;28;20037;-76
2021/04/07 00:11:37;;;;;;;3.83;1.10;;;9.10;29.10;;;;;;6239609;28;20064;-78
2021/04/07 00:14:39;;;;;;;2.60;0.93;;;9.10;29.00;;;;;;6257015;28;20044;-77
2021/04/07 00:17:40;;;;;;;4.20;1.00;;;9.10;28.90;;;;;;6251642;28;20025;-77
2021/04/07 00:20:42;;;;;;;0.90;0.73;;;9.10;28.80;;;;;;6260762;28;20025;-77
2021/04/07 00:23:42;;;;;;;2.42;0.70;;;9.10;28.80;;;;;;6277451;28;20098;-77
2021/04/07 00:26:43;;;;;;;1.63;0.80;;;9.10;28.80;;;;;;6243966;28;20044;-78
2021/04/07 00:29:49;;;;;;;0.98;0.80;;;9.10;28.80;;;;;;6260212;28;20037;-78
2021/04/07 00:32:50;;;;;;;3.22;1.00;;;9.10;28.90;;;;;;6277523;28;20128;-78
2021/04/07 00:35:51;;;;;;;6.85;0.80;;;9.00;28.80;;;;;;6277832;28;20395;-77
2021/04/07 00:38:51;;;;;;;2.38;0.75;;;9.00;29.00;;;;;;6261410;28;20041;-77
2021/04/07 00:41:52;;;;;;;3.00;1.05;;;9.10;28.90;;;;;;6260468;28;20510;-79
2021/04/07 00:44:53;;;;;;;2.22;0.82;;;9.20;28.90;;;;;;6267299;28;20037;-77
2021/04/07 00:47:55;;;;;;;0.80;0.80;;;9.20;28.90;;;;;;6265090;28;20044;-77
2021/04/07 00:50:56;;;;;;;2.58;0.75;;;9.30;28.90;;;;;;6249419;28;20146;-77
2021/04/07 00:53:57;;;;;;;2.03;0.98;;;9.30;29.10;;;;;;6243620;28;20029;-77
2021/04/07 00:56:58;;;;;;;3.80;1.10;;;9.40;29.10;;;;;;6260444;28;20029;-77
2021/04/07 01:00:00;;;;;;;4.25;1.27;;;9.40;29.30;;;;;;6277491;28;20033;-77
2021/04/07 01:03:03;;;;;;;1.15;0.70;;;9.40;29.90;;;;;;6277444;28;20045;-77
2021/04/07 01:06:04;;;;;;;1.75;0.75;;;9.40;29.50;;;;;;6243320;28;20040;-78
2021/04/07 01:09:05;;;;;;;2.22;1.00;;;9.40;29.50;;;;;;6242247;28;20077;-77
2021/04/07 01:12:08;;;;;;;2.65;1.60;;;9.40;29.50;;;;;;6236068;28;20038;-78
2021/04/07 01:15:11;;;;;;;2.60;1.35;;;9.50;29.50;;;;;;6221058;28;20053;-77
2021/04/07 01:18:12;;;;;;;2.50;0.90;;;9.50;29.50;;;;;;6229590;28;20376;-78
2021/04/07 01:21:13;;;;;;;3.03;0.98;;;9.50;29.60;;;;;;6246341;28;20151;-77
2021/04/07 01:24:14;;;;;;;0.98;0.65;;;9.50;29.60;;;;;;6252574;28;20047;-77
2021/04/07 01:27:16;;;;;;;3.75;0.80;;;9.50;29.70;;;;;;6241286;28;20128;-78
2021/04/07 01:30:20;;;;;;;1.40;0.73;;;9.50;29.70;;;;;;6258976;28;20130;-78
2021/04/07 01:33:22;;;;;;;0.80;0.73;;;9.40;29.80;;;;;;6242241;28;20447;-77
2021/04/07 01:36:24;;;;;;;2.65;1.08;;;9.40;30.00;;;;;;6252418;28;20048;-76
2021/04/07 01:39:27;;;;;;;1.92;1.08;;;9.40;30.00;;;;;;6242419;28;20040;-78
2021/04/07 01:42:28;;;;;;;4.00;0.90;;;9.40;30.10;;;;;;6228117;28;20044;-77
2021/04/07 01:45:30;;;;;;;2.80;1.58;;;9.40;30.10;;;;;;6253185;28;20038;-76
2021/04/07 01:48:34;;;;;;;2.70;1.23;;;9.30;30.70;;;;;;6250966;28;20386;-76
2021/04/07 01:51:35;;;;;;;3.83;1.38;;;9.20;31.10;;;;;;6258469;28;20116;-77
2021/04/07 01:54:36;;;;;;;1.13;0.77;;;9.10;31.80;;;;;;6254830;28;20030;-77
2021/04/07 01:57:37;;;;;;;1.83;0.68;;;9.00;32.90;;;;;;6230569;28;20033;-77
2021/04/07 02:00:39;;;;;;;2.53;1.40;;;8.90;33.40;;;;;;6234138;28;20076;-77
2021/04/07 02:03:40;;;;;;;2.05;1.05;;;8.80;34.30;;;;;;6244981;28;20034;-77
2021/04/07 02:06:44;;;;;;;3.55;1.45;;;8.70;35.70;;;;;;6257667;28;20041;-78
2021/04/07 02:09:47;;;;;;;3.47;1.42;;;8.50;36.40;;;;;;6256357;28;20059;-77
2021/04/07 02:12:56;;;;;;;4.25;1.10;;;8.40;36.50;;;;;;6217865;28;20076;-77
2021/04/07 02:15:57;;;;;;;3.95;1.48;;;8.30;37.90;;;;;;6232869;28;20041;-77
2021/04/07 02:18:58;;;;;;;4.80;1.20;;;8.20;38.40;;;;;;6234951;28;20381;-78
2021/04/07 02:22:02;;;;;;;2.50;0.75;;;8.10;39.00;;;;;;6257847;28;20041;-78
2021/04/07 02:25:07;;;;;;;2.72;0.98;;;8.00;39.60;;;;;;6275142;28;20033;-77
2021/04/07 02:28:08;;;;;;;1.63;0.85;;;8.00;40.50;;;;;;6274499;28;20097;-77
2021/04/07 02:31:11;;;;;;;1.30;0.93;;;7.90;40.00;;;;;;6256941;28;20037;-78
2021/04/07 02:34:12;;;;;;;1.83;1.30;;;7.90;41.00;;;;;;6222532;28;20041;-77
2021/04/07 02:37:16;;;;;;;1.55;1.00;;;7.80;41.80;;;;;;6219905;28;20415;-77
2021/04/07 02:40:18;;;;;;;2.00;1.30;;;7.80;42.70;;;;;;6233326;28;20050;-77
2021/04/07 02:43:19;;;;;;;4.88;1.70;;;7.70;42.80;;;;;;6250943;28;20033;-77
2021/04/07 02:46:20;;;;;;;5.60;1.83;;;7.70;43.00;;;;;;6242883;28;20056;-79
2021/04/07 02:49:22;;;;;;;2.88;1.58;;;7.70;43.50;;;;;;6223277;28;20047;-77
2021/04/07 02:52:22;;;;;;;10.95;1.70;;;7.60;44.60;;;;;;6250036;28;20033;-78
2021/04/07 02:55:23;;;;;;;1.63;1.10;;;7.50;45.00;;;;;;6232911;28;20111;-77
2021/04/07 02:58:24;;;;;;;1.98;1.05;;;7.40;46.50;;;;;;6232903;28;20040;-77
2021/04/07 03:01:26;;;;;;;7.35;0.88;;;7.20;48.70;;;;;;6240725;28;20036;-76
2021/04/07 03:04:27;;;;;;;2.03;1.20;;;6.90;50.00;;;;;;6251967;28;20470;-77
2021/04/07 03:07:28;;;;;;;5.97;1.25;;;6.70;50.90;;;;;;6223834;28;20061;-77
2021/04/07 03:10:29;;;;;;;0.75;0.57;;;6.60;51.80;;;;;;6236483;28;20030;-77
2021/04/07 03:13:29;;;;;;;4.20;1.25;;;6.50;52.40;;;;;;6251362;28;20472;-78
2021/04/07 03:16:32;;;;;;;0.95;0.57;;;6.40;52.30;;;;;;6250704;28;20099;-78
2021/04/07 03:19:32;;;;;;;0.60;0.45;;;6.40;52.30;;;;;;6232633;28;20061;-78
2021/04/07 03:22:34;;;;;;;4.03;1.10;;;6.40;52.70;;;;;;6236476;28;20434;-77
2021/04/07 03:25:35;;;;;;;2.88;0.90;;;6.30;52.70;;;;;;6231946;28;20083;-78
2021/04/07 03:28:36;;;;;;;1.35;0.95;;;6.30;53.00;;;;;;6240995;28;20037;-78
2021/04/07 03:31:36;;;;;;;6.25;1.83;;;6.20;53.40;;;;;;6239995;28;20509;-78
2021/04/07 03:34:37;;;;;;;1.85;0.90;;;6.20;53.90;;;;;;6228750;28;20033;-77
2021/04/07 03:37:38;;;;;;;2.10;1.27;;;6.20;53.60;;;;;;6247530;28;20033;-76
2021/04/07 03:40:39;;;;;;;3.45;1.17;;;6.10;53.70;;;;;;6230409;28;20041;-77
2021/04/07 03:43:40;;;;;;;1.10;1.00;;;6.20;53.70;;;;;;6256429;28;20033;-77
2021/04/07 03:46:42;;;;;;;1.20;0.77;;;6.20;53.60;;;;;;6234352;28;20063;-78
2021/04/07 03:49:43;;;;;;;0.95;0.85;;;6.30;53.30;;;;;;6252522;28;20065;-77
2021/04/07 03:52:44;;;;;;;1.42;0.90;;;6.40;53.10;;;;;;6245480;28;20037;-76
2021/04/07 03:55:47;;;;;;;4.88;1.00;;;6.30;52.80;;;;;;6240548;28;20063;-76
2021/04/07 03:58:47;;;;;;;1.30;0.88;;;6.40;52.60;;;;;;6260740;28;20029;-76
2021/04/07 04:01:48;;;;;;;1.95;0.90;;;6.40;52.60;;;;;;6244371;28;20041;-76
2021/04/07 04:04:50;;;;;;;3.05;1.27;;;6.40;52.30;;;;;;6231243;28;20471;-76
2021/04/07 04:07:52;;;;;;;2.70;1.00;;;6.40;52.00;;;;;;6243836;28;20414;-76
2021/04/07 04:10:55;;;;;;;2.78;0.95;;;6.40;51.80;;;;;;6243907;28;20033;-77
2021/04/07 04:13:56;;;;;;;1.10;0.77;;;6.50;51.80;;;;;;6246842;28;20108;-77
2021/04/07 04:16:57;;;;;;;1.38;1.10;;;6.50;51.80;;;;;;6226835;28;20029;-77
2021/04/07 04:19:58;;;;;;;1.52;0.75;;;6.50;51.60;;;;;;6236347;28;20459;-78
2021/04/07 04:22:59;;;;;;;1.48;1.08;;;6.60;51.70;;;;;;6254368;28;20029;-77
2021/04/07 04:26:00;;;;;;;2.70;0.85;;;6.60;51.40;;;;;;6243369;28;20048;-77
2021/04/07 04:29:01;;;;;;;2.83;0.88;;;6.60;51.10;;;;;;6243938;28;20120;-78
2021/04/07 04:32:04;;;;;;;4.97;1.00;;;6.60;51.10;;;;;;6243683;28;20033;-77
2021/04/07 04:35:06;;;;;;;3.67;0.98;;;6.70;50.80;;;;;;6260204;28;20029;-77
2021/04/07 04:38:07;;;;;;;1.35;0.80;;;6.70;50.70;;;;;;6243234;28;20045;-77
2021/04/07 04:41:07;;;;;;;2.88;1.27;;;6.70;50.70;;;;;;6259854;28;20040;-76
2021/04/07 04:44:08;;;;;;;4.25;1.40;;;6.80;50.90;;;;;;6259790;28;20025;-77
2021/04/07 04:47:09;;;;;;;3.17;1.20;;;6.90;51.00;;;;;;6247751;28;20029;-77
2021/04/07 04:50:12;;;;;;;2.08;0.88;;;6.90;50.90;;;;;;6219808;28;20105;-78
2021/04/07 04:53:12;;;;;;;1.55;1.25;;;6.90;50.80;;;;;;6235955;28;20485;-76
2021/04/07 04:56:13;;;;;;;1.40;1.30;;;6.90;50.40;;;;;;6252714;28;20041;-77
2021/04/07 04:59:14;;;;;;;2.35;1.23;;;6.90;49.90;;;;;;6242543;28;20036;-78
2021/04/07 05:02:15;;;;;;;1.42;1.00;;;6.80;49.00;;;;;;6229382;28;20067;-76
2021/04/07 05:05:16;;;;;;;2.10;1.58;;;6.80;48.90;;;;;;6259631;28;20219;-77
2021/04/07 05:08:17;;;;;;;3.67;1.45;;;6.80;49.70;;;;;;6229432;28;20048;-78
2021/04/07 05:11:18;;;;;;;2.38;0.90;;;6.80;49.20;;;;;;6257705;28;20487;-78
2021/04/07 05:14:19;;;;;;;2.10;1.42;;;6.80;48.70;;;;;;6246224;28;20037;-77
2021/04/07 05:17:20;;;;;;;0.68;0.65;;;6.80;48.20;;;;;;6233910;28;20030;-77
2021/04/07 05:20:21;;;;;;;2.15;1.45;;;6.80;48.00;;;;;;6259164;28;20068;-77
2021/04/07 05:23:22;;;;;;;3.05;1.38;;;6.80;47.70;;;;;;6258853;28;20415;-77
2021/04/07 05:26:23;;;;;;;1.20;1.10;;;6.70;47.60;;;;;;6274486;28;20438;-76
2021/04/07 05:29:24;;;;;;;2.55;1.38;;;6.70;47.60;;;;;;6234162;28;20043;-78
2021/04/07 05:32:25;;;;;;;3.50;1.52;;;6.80;47.60;;;;;;6265536;28;20376;-76
2021/04/07 05:35:26;;;;;;;1.17;1.00;;;6.70;47.60;;;;;;6235080;28;20040;-77
2021/04/07 05:38:27;;;;;;;1.77;1.50;;;6.70;47.10;;;;;;6250427;28;20528;-76
2021/04/07 05:41:28;;;;;;;2.95;1.30;;;6.70;47.00;;;;;;6231366;28;20113;-77
2021/04/07 05:44:30;;;;;;;2.63;1.75;;;6.70;47.10;;;;;;6234501;28;20033;-78
2021/04/07 05:47:32;;;;;;;1.77;1.40;;;6.60;47.20;;;;;;6258947;28;20069;-79
2021/04/07 05:50:36;;;;;;;2.42;1.67;;;6.60;47.20;;;;;;6263438;28;20049;-77
2021/04/07 05:53:37;;;;;;;2.17;1.67;;;6.70;47.50;;;;;;6253962;28;20102;-78
2021/04/07 05:56:38;;;;;;;4.00;1.70;;;6.70;47.50;;;;;;6238636;28;20365;-78
2021/04/07 05:59:39;;;;;;;6.13;1.48;;;6.80;47.30;;;;;;6250769;28;20037;-79
2021/04/07 06:02:40;;;;;;;2.67;1.42;;;6.80;46.90;;;;;;6245998;28;20042;-77
2021/04/07 06:05:43;;;;;;;2.47;1.75;;;6.80;46.80;;;;;;6241287;28;20071;-78
2021/04/07 06:08:44;;;;;;;2.22;1.50;;;6.80;46.60;;;;;;6257824;28;20121;-78
2021/04/07 06:11:45;;;;;;;1.23;1.13;;;6.90;46.60;;;;;;6225418;28;20033;-79
2021/04/07 06:14:46;;;;;;;3.45;1.48;;;6.80;46.60;;;;;;6223760;28;20409;-77
2021/04/07 06:18:00;;;;;;;1.58;1.35;;;6.90;46.60;;;;;;6250911;28;20041;-77
2021/04/07 06:21:01;;;;;;;1.65;1.40;;;6.90;46.40;;;;;;6211181;28;20492;-77
2021/04/07 06:24:02;;;;;;;4.22;1.48;;;7.00;46.40;;;;;;6221748;28;20045;-78
2021/04/07 06:27:03;;;;;;;1.92;1.73;;;7.10;46.20;;;;;;6230925;28;20041;-77
2021/04/07 06:30:05;;;;;;;2.40;1.27;;;7.20;45.60;;;;;;6254519;28;20479;-78
2021/04/07 06:33:14;;;;;;;3.50;1.33;;;7.20;45.60;;;;;;6255653;28;20440;-79
2021/04/07 06:36:15;;;;;;;3.42;1.73;;;7.30;45.50;;;;;;6245634;28;20037;-78
2021/04/07 06:39:15;;;;;;;4.18;1.63;;;7.30;45.20;;;;;;6232684;28;20548;-81
2021/04/07 06:42:17;;;;;;;2.22;1.63;;;7.40;45.00;;;;;;6248046;28;20083;-78
2021/04/07 06:45:18;;;;;;;3.17;1.70;;;7.40;44.60;;;;;;6231985;28;20065;-78
2021/04/07 06:48:20;;;;;;;1.85;1.55;;;7.40;44.40;;;;;;6232125;28;20030;-77
2021/04/07 06:51:21;;;;;;;4.47;2.03;;;7.40;44.40;;;;;;6235639;28;20475;-78
2021/04/07 06:54:24;;;;;;;1.75;1.30;;;7.40;44.40;;;;;;6232860;28;20037;-78
2021/04/07 06:57:24;;;;;;;4.85;1.70;;;7.50;44.30;;;;;;6231930;28;20112;-77
2021/04/07 07:00:27;;;;;;;3.88;1.95;;;7.50;44.00;;;;;;6215213;28;20055;-76
2021/04/07 07:03:28;;;;;;;5.18;1.48;;;7.50;43.80;;;;;;6232282;28;20040;-78
2021/04/07 07:06:30;;;;;;;2.78;1.70;;;7.50;43.50;;;;;;6268155;28;20396;-79
2021/04/07 07:09:31;;;;;;;2.78;1.92;;;7.50;43.40;;;;;;6267186;28;20061;-77
2021/04/07 07:12:32;;;;;;;1.83;1.35;;;7.50;43.40;;;;;;6244662;28;20480;-77
2021/04/07 07:15:34;;;;;;;2.47;1.80;;;7.60;43.40;;;;;;6221118;28;20431;-77
2021/04/07 07:18:35;;;;;;;3.45;1.85;;;7.70;43.40;;;;;;6235114;28;20419;-78
2021/04/07 07:21:36;;;;;;;2.80;1.55;;;7.90;43.20;;;;;;6246675;28;20169;-78
2021/04/07 07:24:39;;;;;;;3.97;1.73;;;8.00;42.90;;;;;;6229930;28;20345;-77
2021/04/07 07:27:42;;;;;;;3.28;1.80;;;8.10;42.50;;;;;;6233161;28;20068;-78
2021/04/07 07:30:43;;;;;;;8.95;1.52;;;8.10;41.90;;;;;;6246203;28;20036;-77
2021/04/07 07:33:44;;;;;;;2.72;1.25;;;8.20;41.80;;;;;;6255162;28;20515;-78
2021/04/07 07:36:45;;;;;;;5.03;1.50;;;8.30;41.70;;;;;;6225373;28;20040;-77
2021/04/07 07:39:47;;;;;;;8.10;1.70;;;8.40;41.40;;;;;;6244614;28;20033;-79
2021/04/07 07:42:48;;;;;;;2.70;1.05;;;8.50;40.70;;;;;;6243620;28;20095;-77
2021/04/07 07:45:51;;;;;;;2.53;1.15;;;8.50;39.50;;;;;;6215252;28;20354;-77
2021/04/07 07:48:52;;;;;;;3.67;1.45;;;8.50;38.10;;;;;;6237399;28;20025;-76
2021/04/07 07:51:53;;;;;;;2.35;1.13;;;8.60;37.50;;;;;;6247425;28;20037;-77
2021/04/07 07:54:55;;;;;;;1.77;1.02;;;8.50;37.20;;;;;;6252394;28;20061;-78
2021/04/07 07:57:59;;;;;;;3.20;1.20;;;8.50;36.70;;;;;;6254718;28;20114;-76
2021/04/07 08:01:07;;;;;;;2.13;1.20;;;8.60;36.30;;;;;;6227758;28;20402;-79
2021/04/07 08:04:08;;;;;;;2.33;1.40;;;8.60;35.60;;;;;;6247460;28;20029;-78
2021/04/07 08:07:10;;;;;;;2.38;1.10;;;8.80;35.10;;;;;;6250187;28;20402;-78
2021/04/07 08:10:13;;;;;;;1.20;0.80;;;8.90;35.40;;;;;;6246383;28;20338;-78
2021/04/07 08:13:14;;;;;;;1.33;1.05;;;9.10;35.30;;;;;;6228044;28;20041;-78
2021/04/07 08:16:16;;;;;;;3.17;1.20;;;9.20;33.80;;;;;;6252568;28;20449;-77
2021/04/07 08:19:17;;;;;;;1.20;1.10;;;9.20;33.10;;;;;;6220120;28;20471;-78
2021/04/07 08:22:20;;;;;;;4.30;1.40;;;9.30;33.60;;;;;;6237532;28;20444;-78
2021/04/07 08:25:22;;;;;;;2.45;1.10;;;9.30;33.20;;;;;;6247218;28;20072;-78
2021/04/07 08:28:23;;;;;;;1.75;1.05;;;9.50;33.00;;;;;;6240856;28;20025;-77
2021/04/07 08:31:27;;;;;;;1.83;0.93;;;9.70;32.40;;;;;;6244404;28;20469;-78
2021/04/07 08:34:28;;;;;;;5.85;2.20;;;9.90;31.80;;;;;;6255155;28;20057;-78
2021/04/07 08:37:31;;;;;;;1.40;1.30;;;10.00;31.20;;;;;;6267390;28;20033;-79
2021/04/07 08:40:38;;;;;;;3.20;1.35;;;9.90;30.50;;;;;;6257917;28;20040;-78
2021/04/07 08:43:40;;;;;;;1.55;1.10;;;9.90;30.90;;;;;;6263744;28;20033;-78
2021/04/07 08:46:53;;;;;;;3.42;1.05;;;10.10;31.50;;;;;;6266811;28;20437;-77
2021/04/07 08:50:05;;;;;;;1.02;0.90;;;10.10;31.40;;;;;;6225996;28;20040;-77
2021/04/07 08:53:14;;;;;;;4.45;0.73;;;10.00;30.20;;;;;;6267772;28;20046;-77
2021/04/07 08:56:28;;;;;;;2.67;1.10;;;10.10;29.60;;;;;;6251041;28;20124;-78
2021/04/07 08:59:29;;;;;;;2.00;1.00;;;10.30;28.90;;;;;;6238164;28;20045;-77
2021/04/07 09:02:31;;;;;;;2.55;1.00;;;10.40;29.30;;;;;;6255976;28;20040;-76
2021/04/07 09:05:36;;;;;;;1.80;1.02;;;10.50;29.10;;;;;;6254183;28;20048;-79
2021/04/07 09:08:37;;;;;;;4.50;1.10;;;10.50;28.40;;;;;;6257714;28;20060;-77
2021/04/07 09:11:42;;;;;;;2.70;1.05;;;10.80;28.10;;;;;;6244419;28;20041;-77
2021/04/07 09:14:54;;;;;;;2.05;1.25;;;10.90;27.50;;;;;;6255783;28;20079;-78
2021/04/07 09:17:58;;;;;;;3.47;1.40;;;11.00;27.60;;;;;;6215287;28;20048;-77
2021/04/07 09:21:00;;;;;;;2.88;1.35;;;11.20;27.10;;;;;;6248188;28;20030;-78
2021/04/07 09:24:02;;;;;;;2.08;1.05;;;11.20;27.00;;;;;;6245639;28;20115;-78
2021/04/07 09:27:03;;;;;;;1.38;1.08;;;11.30;27.10;;;;;;6237661;28;20071;-79
2021/04/07 09:30:07;;;;;;;2.80;1.23;;;11.40;26.30;;;;;;6222226;28;20049;-77
2021/04/07 09:33:08;;;;;;;2.13;0.82;;;11.30;25.40;;;;;;6253789;28;20116;-78
2021/04/07 09:36:10;;;;;;;2.55;1.05;;;11.10;25.90;;;;;;6259960;28;20112;-77
2021/04/07 09:39:23;;;;;;;1.00;0.77;;;11.00;25.40;;;;;;6218285;28;20041;-77
2021/04/07 09:42:24;;;;;;;3.05;0.90;;;10.90;25.70;;;;;;6214869;28;20033;-77
2021/04/07 09:45:30;;;;;;;1.05;0.73;;;10.90;25.70;;;;;;6253664;28;20102;-77
2021/04/07 09:48:47;;;;;;;6.07;0.80;;;10.90;25.00;;;;;;6240267;28;20107;-77
2021/04/07 09:51:49;;;;;;;2.28;1.33;;;10.90;24.60;;;;;;6235873;28;20033;-79
2021/04/07 09:54:50;;;;;;;8.18;1.95;;;10.90;24.70;;;;;;6239214;28;20029;-78
2021/04/07 09:57:57;;;;;;;3.88;0.93;;;11.00;25.20;;;;;;6238320;28;20037;-77
2021/04/07 10:01:00;;;;;;;3.97;1.25;;;11.30;25.60;;;;;;6247151;28;20446;-78
2021/04/07 10:04:01;;;;;;;3.72;1.65;;;11.20;26.30;;;;;;6237470;28;20109;-77
2021/04/07 10:07:35;;;;;;;1.30;0.90;;;11.30;26.70;;;;;;6248697;28;20454;-79
2021/04/07 10:10:35;;;;;;;1.27;0.77;;;11.50;26.20;;;;;;6170476;28;20047;-78
2021/04/07 10:13:37;;;;;;;10.23;1.67;;;11.50;25.20;;;;;;6179497;28;20038;-77
2021/04/07 10:16:40;;;;;;;1.92;1.00;;;11.70;25.20;;;;;;6194340;28;20050;-78
2021/04/07 10:19:43;;;;;;;1.10;0.80;;;11.90;25.70;;;;;;6179021;28;20031;-77
2021/04/07 10:22:49;;;;;;;1.40;1.10;;;12.10;24.70;;;;;;6197143;28;20034;-78
2021/04/07 10:25:53;;;;;;;2.63;1.20;;;12.20;24.20;;;;;;6199490;28;20038;-78
2021/04/07 10:29:02;;;;;;;1.58;0.88;;;12.40;24.00;;;;;;6158178;28;20049;-79
2021/04/07 10:32:03;;;;;;;2.53;1.08;;;12.60;24.00;;;;;;6178389;28;20031;-79
2021/04/07 10:35:04;;;;;;;2.70;1.20;;;12.80;24.10;;;;;;6170452;28;20035;-80
2021/04/07 10:38:10;;;;;;;7.30;1.23;;;12.80;23.50;;;;;;6180686;28;20504;-79
2021/04/07 10:41:12;;;;;;;3.70;1.30;;;12.80;23.10;;;;;;6182788;28;20034;-78
2021/04/07 10:44:27;;;;;;;2.35;1.15;;;12.90;23.10;;;;;;6174994;28;20034;-77
2021/04/07 10:47:37;;;;;;;2.03;0.90;;;13.30;23.30;;;;;;6246660;28;20056;-78
2021/04/07 10:50:41;;;;;;;8.40;1.02;;;13.70;22.70;;;;;;6229259;28;20051;-78
2021/04/07 10:53:43;;;;;;;1.30;0.90;;;14.00;22.60;;;;;;6233320;28;20041;-77
2021/04/07 10:56:44;;;;;;;4.25;1.20;;;14.10;22.50;;;;;;6235570;28;20472;-76
2021/04/07 10:59:45;;;;;;;2.63;0.85;;;14.40;22.50;;;;;;6255361;28;20037;-77
2021/04/07 11:02:47;;;;;;;1.00;0.60;;;14.70;22.20;;;;;;6237737;28;20052;-78
2021/04/07 11:05:48;;;;;;;1.70;0.63;;;15.10;21.90;;;;;;6228897;28;20472;-77
2021/04/07 11:08:53;;;;;;;3.05;1.13;;;15.30;21.40;;;;;;6262779;28;20048;-78
2021/04/07 11:11:54;;;;;;;1.35;0.57;;;15.60;21.80;;;;;;6282175;28;20142;-77
2021/04/07 11:14:55;;;;;;;1.20;0.90;;;15.80;20.20;;;;;;6259752;28;20383;-76
2021/04/07 11:17:56;;;;;;;2.30;0.90;;;15.50;19.90;;;;;;6276678;28;20028;-77
2021/04/07 11:20:57;;;;;;;1.35;0.43;;;15.20;19.90;;;;;;6291339;28;20048;-77
2021/04/07 11:23:58;;;;;;;1.90;0.63;;;15.00;19.60;;;;;;6251608;28;20032;-78
2021/04/07 11:26:59;;;;;;;1.08;0.60;;;15.00;19.40;;;;;;6279061;28;20124;-77
2021/04/07 11:30:03;;;;;;;1.67;0.55;;;14.70;19.70;;;;;;6266824;28;20420;-77
2021/04/07 11:33:07;;;;;;;1.58;0.70;;;14.80;19.70;;;;;;6296715;28;20355;-78
2021/04/07 11:36:40;;;;;;;3.33;0.93;;;15.00;19.30;;;;;;6280076;28;20053;-78
2021/04/07 11:39:50;;;;;;;3.25;0.80;;;15.40;19.70;;;;;;6259927;28;20067;-77
2021/04/07 11:43:04;;;;;;;1.55;1.05;;;15.90;19.60;;;;;;6285486;28;20966;-77
2021/04/07 11:46:05;;;;;;;4.78;0.98;;;16.10;19.40;;;;;;6274608;28;20051;-79
2021/04/07 11:49:06;;;;;;;1.02;0.73;;;16.40;19.00;;;;;;6253188;28;20029;-77
2021/04/07 11:52:08;;;;;;;1.35;1.00;;;16.80;18.80;;;;;;6255060;28;20044;-79
2021/04/07 11:55:09;;;;;;;2.47;0.70;;;17.30;18.60;;;;;;6271268;28;20090;-80
2021/04/07 11:58:11;;;;;;;1.08;0.77;;;17.70;18.00;;;;;;6254543;28;20033;-77
2021/04/07 12:01:13;;;;;;;0.68;0.50;;;18.00;17.60;;;;;;6254683;28;20379;-78
2021/04/07 12:04:15;;;;;;;0.80;0.68;;;18.30;16.70;;;;;;6294798;28;20029;-78
2021/04/07 12:07:16;;;;;;;1.50;0.73;;;18.90;16.60;;;;;;6259853;28;20050;-78
2021/04/07 12:10:22;;;;;;;3.08;0.90;;;19.30;15.60;;;;;;6243483;28;20057;-77
2021/04/07 12:13:23;;;;;;;1.25;0.85;;;19.40;15.60;;;;;;6233531;28;20404;-78
2021/04/07 12:16:25;;;;;;;3.60;0.60;;;19.50;15.30;;;;;;6254179;28;20065;-78
2021/04/07 12:19:27;;;;;;;0.98;0.65;;;19.50;14.90;;;;;;6266166;28;20033;-77
2021/04/07 12:22:28;;;;;;;1.73;0.88;;;19.30;14.90;;;;;;6226315;28;20210;-77
2021/04/07 12:25:30;;;;;;;0.47;0.40;;;19.10;14.70;;;;;;6233338;28;20459;-77
2021/04/07 12:28:30;;;;;;;2.40;0.77;;;18.60;15.00;;;;;;6217241;28;20037;-78
2021/04/07 12:31:32;;;;;;;0.55;0.40;;;18.80;15.20;;;;;;6270647;28;20037;-78
2021/04/07 12:34:33;;;;;;;0.73;0.50;;;19.40;14.90;;;;;;6256505;28;20107;-77
2021/04/07 12:37:35;;;;;;;1.25;0.50;;;20.30;14.30;;;;;;6256322;28;20128;-79
2021/04/07 12:40:38;;;;;;;1.58;0.65;;;20.40;14.00;;;;;;6218569;28;20040;-78
2021/04/07 12:43:39;;;;;;;1.58;0.55;;;20.60;13.90;;;;;;6247324;28;20552;-77
2021/04/07 12:46:41;;;;;;;1.08;0.68;;;21.10;13.80;;;;;;6210657;28;20121;-78
2021/04/07 12:49:43;;;;;;;3.17;0.70;;;21.70;13.50;;;;;;6228948;28;20125;-78
2021/04/07 12:52:47;;;;;;;4.82;0.80;;;22.10;13.10;;;;;;6231581;28;20460;-79
2021/04/07 12:55:50;;;;;;;4.22;0.68;;;22.20;12.70;;;;;;6228403;28;20025;-78
2021/04/07 12:58:51;;;;;;;1.13;0.40;;;22.60;12.90;;;;;;6227340;28;20496;-79
2021/04/07 13:01:52;;;;;;;2.15;0.80;;;23.20;12.30;;;;;;6235469;28;20033;-78
2021/04/07 13:04:53;;;;;;;0.85;0.50;;;23.40;12.00;;;;;;6240355;28;20056;-77
2021/04/07 13:07:54;;;;;;;0.82;0.43;;;22.50;12.10;;;;;;6227827;28;20098;-79
2021/04/07 13:10:55;;;;;;;1.35;0.60;;;21.70;12.60;;;;;;6229379;28;20099;-76
2021/04/07 13:13:56;;;;;;;5.50;0.50;;;21.90;12.60;;;;;;6251121;28;20037;-77
2021/04/07 13:16:57;;;;;;;0.60;0.60;;;21.80;12.70;;;;;;6233786;28;20057;-77
2021/04/07 13:19:58;;;;;;;0.47;0.38;;;21.20;12.90;;;;;;6241176;28;20124;-77
2021/04/07 13:22:59;;;;;;;1.92;0.82;;;21.40;12.60;;;;;;6230198;28;20420;-78
2021/04/07 13:26:00;;;;;;;2.67;0.65;;;21.70;12.20;;;;;;6239790;28;20041;-77
2021/04/07 13:29:01;;;;;;;0.68;0.50;;;21.80;12.10;;;;;;6274240;28;20052;-77
2021/04/07 13:32:05;;;;;;;2.70;0.70;;;21.50;12.40;;;;;;6256405;28;20488;-77
2021/04/07 13:35:13;;;;;;;2.13;0.82;;;20.90;12.90;;;;;;6247032;28;20122;-78
2021/04/07 13:41:40;;;;;;;1.88;0.60;;;21.80;12.40;;;;;;6267994;28;20052;-77
2021/04/07 13:44:44;;;;;;;2.00;1.02;;;22.20;11.80;;;;;;6258373;28;20460;-78
2021/04/07 13:47:46;;;;;;;2.85;0.50;;;22.10;12.10;;;;;;6230899;28;20128;-79
2021/04/07 13:50:47;;;;;;;0.43;0.40;;;21.70;11.90;;;;;;6238885;28;20037;-76
2021/04/07 13:53:49;;;;;;;1.80;1.00;;;20.80;12.50;;;;;;6261652;28;20048;-77
2021/04/07 14:00:00;;;;;;;5.43;0.60;;;19.60;13.60;;;;;;6251688;28;20444;-77
2021/04/07 14:03:02;;;;;;;1.08;0.50;;;19.80;13.60;;;;;;6204619;28;20041;-78
2021/04/07 14:06:05;;;;;;;0.77;0.43;;;19.60;13.70;;;;;;6237861;28;20044;-77
2021/04/07 14:09:06;;;;;;;4.60;0.50;;;19.20;13.80;;;;;;6225516;28;20041;-76
2021/04/07 14:12:08;;;;;;;5.22;0.82;;;18.70;14.40;;;;;;6237944;28;20044;-79
2021/04/07 14:15:10;;;;;;;1.42;0.70;;;18.30;15.00;;;;;;6249324;28;20404;-76
2021/04/07 14:18:11;;;;;;;2.97;0.57;;;18.00;15.50;;;;;;6221167;28;20087;-78
2021/04/07 14:21:12;;;;;;;3.88;0.57;;;17.40;16.00;;;;;;6247920;28;20041;-77
2021/04/07 14:24:13;;;;;;;2.15;0.70;;;16.70;16.40;;;;;;6249431;28;20048;-77
2021/04/07 14:27:14;;;;;;;4.07;0.80;;;16.20;17.00;;;;;;6253885;28;20470;-78
2021/04/07 14:30:17;;;;;;;3.22;0.80;;;15.80;17.40;;;;;;6237616;28;20029;-77
2021/04/07 14:33:20;;;;;;;2.20;0.52;;;15.50;17.70;;;;;;6241142;28;20469;-78
2021/04/07 14:36:22;;;;;;;1.27;0.40;;;15.20;18.60;;;;;;6254177;28;20049;-79
2021/04/07 14:39:23;;;;;;;1.27;0.40;;;15.00;18.90;;;;;;6237820;28;20091;-79
2021/04/07 14:42:23;;;;;;;2.53;0.70;;;14.80;19.10;;;;;;6227963;28;20459;-77
2021/04/07 14:45:25;;;;;;;2.78;0.75;;;14.60;19.30;;;;;;6236084;28;20112;-77
2021/04/07 14:48:27;;;;;;;0.52;0.50;;;14.50;19.10;;;;;;6216682;28;20037;-78
2021/04/07 14:51:31;;;;;;;1.30;0.70;;;14.40;18.90;;;;;;6219460;28;20029;-78
2021/04/07 14:54:38;;;;;;;1.73;0.70;;;14.30;18.90;;;;;;6242151;28;20040;-77
2021/04/07 14:57:41;;;;;;;0.82;0.45;;;14.30;19.10;;;;;;6233182;28;20041;-77
2021/04/07 15:00:41;;;;;;;1.75;0.50;;;14.20;19.30;;;;;;6249109;28;20037;-78
2021/04/07 15:03:42;;;;;;;4.65;0.57;;;14.20;19.60;;;;;;6249298;28;20049;-77
2021/04/07 15:06:43;;;;;;;3.95;0.50;;;14.10;19.80;;;;;;6253202;28;20478;-79
2021/04/07 15:09:46;;;;;;;1.38;0.68;;;14.10;20.00;;;;;;6230405;28;20057;-77
2021/04/07 15:12:47;;;;;;;0.65;0.55;;;14.00;20.30;;;;;;6262204;28;20033;-78
2021/04/07 15:15:48;;;;;;;3.58;0.75;;;14.00;20.30;;;;;;6238868;28;20037;-78
2021/04/07 15:18:49;;;;;;;3.30;0.88;;;14.10;20.30;;;;;;6228938;28;20066;-78
2021/04/07 15:21:50;;;;;;;1.73;0.50;;;14.10;20.30;;;;;;6235123;28;20095;-77
2021/04/07 15:24:53;;;;;;;1.08;0.60;;;14.10;20.20;;;;;;6257290;28;20044;-78
2021/04/07 15:30:57;;;;;;;4.07;0.60;;;14.10;20.00;;;;;;6256799;28;20063;-78
2021/04/07 15:33:59;;;;;;;0.88;0.50;;;14.10;19.80;;;;;;6272926;28;20044;-77
2021/04/07 15:37:00;;;;;;;4.40;0.95;;;14.10;19.90;;;;;;6256871;28;20029;-79
2021/04/07 15:40:01;;;;;;;1.48;0.40;;;14.20;20.10;;;;;;6242818;28;20139;-79
2021/04/07 15:43:02;;;;;;;1.10;0.60;;;14.20;20.40;;;;;;6250680;28;20048;-79
2021/04/07 15:46:05;;;;;;;4.13;1.00;;;14.10;20.80;;;;;;6222074;28;20041;-78
2021/04/07 15:49:05;;;;;;;2.35;0.70;;;14.10;20.90;;;;;;6252028;28;20029;-78
2021/04/07 15:52:28;;;;;;;2.70;0.52;;;14.10;20.80;;;;;;6259937;28;20079;-80
2021/04/07 15:55:29;;;;;;;2.25;0.73;;;14.10;20.90;;;;;;6273950;28;20025;-78
2021/04/07 15:58:30;;;;;;;1.77;0.60;;;14.10;20.90;;;;;;6232271;28;20345;-79
2021/04/07 16:01:31;;;;;;;4.20;0.63;;;14.10;20.80;;;;;;6258283;28;20041;-77
2021/04/07 16:04:38;;;;;;;1.70;0.57;;;14.10;20.80;;;;;;6219544;28;20052;-76
2021/04/07 16:07:39;;;;;;;2.35;0.63;;;14.30;20.40;;;;;;6235778;28;20061;-78